Time;durP1;ratioP1;P1;durP2;ratioP2;P2;SDS_P1;SDS_P2;PMS_P1;PMS_P2;Temp;Humidity;BMP_temperature;BMP_pressure;BME280_temperature;BME280_humidity;BME280_pressure;Samples;Min_cycle;Max_cycle;Signal;HPM_P1;HPM_P2
2022/07/05 00:02:01;;;;;;;1.10;1.00;;;17.30;93.20;;;;;;5008844;28;20621;-82
2022/07/05 00:04:27;;;;;;;1.00;0.90;;;17.20;93.50;;;;;;4997603;28;20205;-82
2022/07/05 00:09:37;;;;;;;1.10;1.00;;;17.10;94.20;;;;;;5015643;28;20809;-83
2022/07/05 00:12:03;;;;;;;1.30;1.03;;;17.00;94.00;;;;;;4997908;28;20416;-82
2022/07/05 00:14:32;;;;;;;1.37;1.00;;;16.90;94.00;;;;;;4997738;28;20178;-83
2022/07/05 00:16:58;;;;;;;1.00;0.90;;;16.90;94.00;;;;;;4997574;28;20272;-83
2022/07/05 00:19:24;;;;;;;0.90;0.90;;;16.90;94.20;;;;;;4989644;28;20468;-83
2022/07/05 00:21:49;;;;;;;1.00;0.90;;;16.80;94.70;;;;;;4992821;28;20172;-82
2022/07/05 00:24:15;;;;;;;1.30;1.20;;;16.80;94.70;;;;;;4996906;28;20213;-82
2022/07/05 00:26:40;;;;;;;1.00;1.00;;;16.80;95.20;;;;;;4995974;28;20254;-84
2022/07/05 00:29:06;;;;;;;1.00;0.83;;;16.80;95.20;;;;;;4986335;28;20672;-83
2022/07/05 00:31:32;;;;;;;0.93;0.83;;;16.80;95.20;;;;;;4997670;28;20189;-83
2022/07/05 00:33:57;;;;;;;1.40;1.10;;;16.70;95.10;;;;;;4997425;28;20480;-83
2022/07/05 00:36:23;;;;;;;1.57;1.20;;;16.60;94.90;;;;;;4997086;28;20220;-83
2022/07/05 00:38:51;;;;;;;1.40;1.00;;;16.60;95.00;;;;;;4996515;28;20240;-83
2022/07/05 00:41:16;;;;;;;1.07;0.97;;;16.50;94.90;;;;;;4996005;28;20184;-82
2022/07/05 00:43:56;;;;;;;1.47;1.07;;;16.50;94.90;;;;;;4996411;28;20513;-82
2022/07/05 00:46:22;;;;;;;1.00;0.90;;;16.40;95.30;;;;;;4995804;28;20350;-83
2022/07/05 00:48:48;;;;;;;1.03;1.00;;;16.40;95.30;;;;;;4996487;28;20578;-82
2022/07/05 00:51:14;;;;;;;1.00;0.90;;;16.30;95.10;;;;;;4996426;28;20185;-83
2022/07/05 00:53:40;;;;;;;1.00;0.90;;;16.30;95.30;;;;;;4996586;28;20562;-82
2022/07/05 00:56:06;;;;;;;1.17;1.10;;;16.20;95.80;;;;;;4996794;28;20185;-82
2022/07/05 00:58:33;;;;;;;1.33;1.30;;;16.20;96.00;;;;;;4996626;28;20288;-83
2022/07/05 01:01:01;;;;;;;1.27;1.17;;;16.20;95.30;;;;;;4992845;28;20983;-82
2022/07/05 01:03:27;;;;;;;1.10;1.00;;;16.20;95.30;;;;;;4992836;28;20457;-82
2022/07/05 01:05:54;;;;;;;1.10;1.00;;;16.20;95.30;;;;;;4992161;28;20475;-85
2022/07/05 01:08:22;;;;;;;3.70;2.30;;;16.10;95.80;;;;;;4992946;28;20236;-84
2022/07/05 01:10:47;;;;;;;0.80;0.80;;;16.10;96.10;;;;;;4993094;28;20425;-84
2022/07/05 01:13:14;;;;;;;1.20;1.10;;;16.10;96.50;;;;;;4982168;28;21008;-85
2022/07/05 01:15:41;;;;;;;1.00;0.90;;;16.00;97.00;;;;;;4990412;28;20181;-83
2022/07/05 01:18:08;;;;;;;1.00;0.97;;;16.00;96.80;;;;;;4992887;28;20547;-83
2022/07/05 01:20:35;;;;;;;1.00;0.90;;;16.00;97.00;;;;;;4992819;28;20541;-83
2022/07/05 01:23:02;;;;;;;1.13;1.03;;;16.00;96.90;;;;;;4994050;28;20459;-83
2022/07/05 01:25:29;;;;;;;2.97;1.00;;;15.90;96.90;;;;;;4992749;28;20463;-82
2022/07/05 01:27:56;;;;;;;1.10;0.90;;;15.90;96.90;;;;;;4992656;28;20464;-82
2022/07/05 01:30:22;;;;;;;1.07;0.97;;;15.90;97.00;;;;;;4992911;28;20421;-83
2022/07/05 01:32:48;;;;;;;1.10;1.00;;;15.80;97.10;;;;;;4992926;28;20556;-82
2022/07/05 01:35:25;;;;;;;1.10;1.00;;;15.80;97.30;;;;;;4992192;28;20544;-82
2022/07/05 01:37:51;;;;;;;1.20;1.10;;;15.70;97.30;;;;;;4992656;28;20256;-83
2022/07/05 01:40:19;;;;;;;1.37;1.00;;;15.70;97.30;;;;;;4980887;28;20435;-82
2022/07/05 01:42:45;;;;;;;1.03;0.97;;;15.70;97.30;;;;;;4994023;28;20511;-82
2022/07/05 01:45:11;;;;;;;1.10;1.10;;;15.60;97.30;;;;;;4992689;28;20922;-82
2022/07/05 01:47:41;;;;;;;1.00;0.90;;;15.60;97.30;;;;;;4992876;28;20448;-83
2022/07/05 01:50:08;;;;;;;1.20;1.10;;;15.60;97.30;;;;;;4981371;28;20243;-84
2022/07/05 01:52:39;;;;;;;0.97;0.90;;;15.50;97.30;;;;;;4992291;28;20416;-83
2022/07/05 01:55:05;;;;;;;1.93;1.83;;;15.50;97.30;;;;;;4983410;28;21038;-83
2022/07/05 01:57:31;;;;;;;1.03;0.97;;;15.50;97.30;;;;;;4995900;28;20495;-83
2022/07/05 01:59:57;;;;;;;1.30;1.20;;;15.40;97.30;;;;;;4995493;28;20432;-83
2022/07/05 02:02:22;;;;;;;1.10;1.00;;;15.40;97.30;;;;;;4996353;28;20225;-83
2022/07/05 02:04:48;;;;;;;1.00;0.90;;;15.30;97.30;;;;;;4996479;28;20221;-83
2022/07/05 02:07:13;;;;;;;1.17;1.07;;;15.30;97.30;;;;;;4996570;28;20264;-83
2022/07/05 02:09:39;;;;;;;1.10;1.00;;;15.20;97.30;;;;;;4996777;28;20181;-83
2022/07/05 02:12:05;;;;;;;1.00;0.90;;;15.20;97.30;;;;;;4996349;28;20216;-83
2022/07/05 02:14:31;;;;;;;1.00;0.90;;;15.20;97.30;;;;;;4996518;28;20182;-83
2022/07/05 02:16:57;;;;;;;1.00;1.00;;;15.20;97.30;;;;;;4996244;28;20449;-84
2022/07/05 02:19:23;;;;;;;1.07;0.97;;;15.20;97.30;;;;;;4996009;28;20437;-83
2022/07/05 02:21:49;;;;;;;1.00;0.90;;;15.10;97.30;;;;;;4989260;28;20187;-84
2022/07/05 02:24:14;;;;;;;1.00;0.90;;;15.10;97.30;;;;;;4990271;28;20967;-81
2022/07/05 02:26:40;;;;;;;1.10;1.00;;;15.00;97.30;;;;;;4996967;28;20178;-82
2022/07/05 02:29:06;;;;;;;1.00;0.90;;;15.00;97.30;;;;;;4983633;28;20196;-83
2022/07/05 02:31:32;;;;;;;1.07;0.97;;;15.00;97.30;;;;;;4997212;28;20184;-81
2022/07/05 02:33:58;;;;;;;1.67;1.57;;;15.00;97.30;;;;;;4996706;28;20193;-83
2022/07/05 02:36:24;;;;;;;1.20;1.10;;;14.90;97.30;;;;;;4996340;28;20429;-84
2022/07/05 02:38:49;;;;;;;0.97;0.90;;;14.80;97.30;;;;;;4996238;28;20810;-83
2022/07/05 02:41:15;;;;;;;1.03;0.93;;;14.80;97.30;;;;;;4984844;28;20237;-83
2022/07/05 02:43:41;;;;;;;1.10;1.00;;;14.80;97.30;;;;;;4996467;28;20619;-83
2022/07/05 02:46:08;;;;;;;1.20;1.10;;;14.70;97.30;;;;;;4996463;28;20716;-83
2022/07/05 02:48:35;;;;;;;1.10;1.00;;;14.70;97.30;;;;;;4996483;28;20198;-83
2022/07/05 02:51:02;;;;;;;2.50;1.07;;;14.70;97.30;;;;;;4997889;28;20409;-85
2022/07/05 02:53:27;;;;;;;1.10;1.00;;;14.70;97.30;;;;;;4997590;28;20460;-84
2022/07/05 02:55:54;;;;;;;1.00;0.90;;;14.70;97.30;;;;;;4997582;28;20475;-84
2022/07/05 02:58:19;;;;;;;0.97;0.90;;;14.70;97.30;;;;;;4998069;28;20206;-84
2022/07/05 03:00:47;;;;;;;1.13;1.00;;;14.60;97.30;;;;;;4998255;28;20469;-84
2022/07/05 03:03:13;;;;;;;1.20;1.10;;;14.60;97.30;;;;;;4998177;28;20206;-84
2022/07/05 03:05:39;;;;;;;1.03;0.93;;;14.60;97.30;;;;;;4997531;28;20696;-85
2022/07/05 03:08:05;;;;;;;1.10;1.00;;;14.60;97.30;;;;;;4997735;28;20445;-84
2022/07/05 03:10:31;;;;;;;1.00;0.90;;;14.60;97.30;;;;;;4985826;28;20189;-84
2022/07/05 03:12:56;;;;;;;1.03;0.93;;;14.50;97.30;;;;;;4997926;28;20798;-82
2022/07/05 03:15:22;;;;;;;1.20;1.10;;;14.50;97.30;;;;;;4997509;28;20339;-84
2022/07/05 03:17:47;;;;;;;2.77;1.40;;;14.50;97.30;;;;;;4996943;28;20198;-83
2022/07/05 03:20:13;;;;;;;1.10;1.00;;;14.50;97.30;;;;;;4997262;28;20185;-83
2022/07/05 03:22:38;;;;;;;1.10;1.10;;;14.50;97.30;;;;;;4996850;28;20206;-83
2022/07/05 03:25:05;;;;;;;3.53;2.60;;;14.50;97.30;;;;;;4997331;28;20206;-84
2022/07/05 03:27:31;;;;;;;1.10;1.00;;;14.40;97.30;;;;;;4996919;28;20202;-83
2022/07/05 03:29:57;;;;;;;1.17;1.07;;;14.40;97.30;;;;;;4996312;28;20420;-84
2022/07/05 03:32:22;;;;;;;1.00;0.90;;;14.40;97.30;;;;;;4996654;28;20174;-83
2022/07/05 03:34:48;;;;;;;1.30;1.20;;;14.30;97.30;;;;;;4996820;28;20678;-83
2022/07/05 03:37:14;;;;;;;1.07;0.97;;;14.30;97.30;;;;;;4995321;28;20686;-82
2022/07/05 03:39:39;;;;;;;1.87;1.13;;;14.30;97.30;;;;;;4995567;28;20178;-83
2022/07/05 03:42:05;;;;;;;1.00;0.90;;;14.40;97.30;;;;;;4995243;28;20181;-83
2022/07/05 03:44:32;;;;;;;1.03;0.93;;;14.40;97.30;;;;;;4992761;28;20297;-83
2022/07/05 03:46:58;;;;;;;1.10;1.00;;;14.40;97.30;;;;;;4982800;28;20488;-83
2022/07/05 03:49:24;;;;;;;1.03;1.00;;;14.50;97.30;;;;;;4995201;28;20989;-84
2022/07/05 03:51:50;;;;;;;0.80;0.77;;;14.50;97.30;;;;;;4990381;28;20437;-84
2022/07/05 03:54:15;;;;;;;1.10;1.00;;;14.60;97.30;;;;;;4980893;28;20255;-84
2022/07/05 03:56:41;;;;;;;1.20;1.10;;;14.60;97.30;;;;;;5002926;28;20432;-84
2022/07/05 03:59:07;;;;;;;1.10;1.00;;;14.70;97.30;;;;;;4994393;28;20810;-85
2022/07/05 04:01:33;;;;;;;1.00;0.90;;;14.80;97.30;;;;;;4993426;28;20484;-85
2022/07/05 04:03:58;;;;;;;1.43;0.87;;;14.80;97.30;;;;;;4977692;28;20210;-84
2022/07/05 04:06:24;;;;;;;1.00;0.90;;;14.90;97.30;;;;;;4977971;28;20662;-83
2022/07/05 04:08:50;;;;;;;1.37;1.20;;;14.90;97.30;;;;;;4995908;28;20218;-84
2022/07/05 04:11:16;;;;;;;1.37;1.27;;;15.00;97.30;;;;;;4977279;28;20236;-84
2022/07/05 04:13:42;;;;;;;1.47;1.37;;;15.00;97.30;;;;;;4978392;28;20174;-84
2022/07/05 04:16:09;;;;;;;1.10;1.00;;;15.10;97.30;;;;;;4976804;28;20440;-84
2022/07/05 04:18:35;;;;;;;1.10;1.00;;;15.10;97.30;;;;;;4976976;28;20455;-84
2022/07/05 04:21:01;;;;;;;0.80;0.80;;;15.20;97.30;;;;;;4977950;28;20496;-83
2022/07/05 04:23:27;;;;;;;1.10;1.00;;;15.30;97.30;;;;;;4977031;28;20449;-84
2022/07/05 04:25:53;;;;;;;1.10;1.03;;;15.30;97.30;;;;;;4977455;28;20421;-84
2022/07/05 04:28:19;;;;;;;3.17;1.00;;;15.40;97.30;;;;;;4977663;28;20194;-85
2022/07/05 04:30:44;;;;;;;1.13;1.03;;;15.40;97.30;;;;;;4977647;28;20463;-84
2022/07/05 04:33:11;;;;;;;1.30;1.20;;;15.50;97.30;;;;;;4978293;28;20189;-84
2022/07/05 04:35:36;;;;;;;1.00;0.90;;;15.50;97.30;;;;;;4977563;28;20664;-84
2022/07/05 04:38:02;;;;;;;1.20;1.13;;;15.60;97.30;;;;;;4977381;28;20468;-84
2022/07/05 04:40:28;;;;;;;1.10;1.00;;;15.60;97.30;;;;;;4977509;28;20675;-84
2022/07/05 04:42:53;;;;;;;1.00;1.00;;;15.70;97.30;;;;;;4994887;28;20413;-84
2022/07/05 04:45:19;;;;;;;0.93;0.87;;;15.70;97.30;;;;;;4977741;28;20276;-85
2022/07/05 04:47:45;;;;;;;1.60;1.50;;;15.70;97.30;;;;;;4983288;28;20684;-84
2022/07/05 04:50:10;;;;;;;1.87;1.77;;;15.80;97.30;;;;;;4977331;28;20665;-85
2022/07/05 04:52:36;;;;;;;1.10;1.00;;;15.80;97.30;;;;;;4977375;28;20723;-84
2022/07/05 04:55:02;;;;;;;1.17;1.07;;;15.90;97.30;;;;;;4978427;28;20181;-84
2022/07/05 04:57:39;;;;;;;1.10;1.00;;;15.90;97.30;;;;;;4989339;28;20206;-83
2022/07/05 05:00:05;;;;;;;1.10;0.80;;;16.00;97.30;;;;;;4957813;28;20424;-85
2022/07/05 05:02:31;;;;;;;1.10;1.00;;;16.00;97.30;;;;;;4989665;28;20471;-85
2022/07/05 05:04:57;;;;;;;0.77;0.73;;;16.00;97.30;;;;;;4996605;28;20451;-84
2022/07/05 05:07:22;;;;;;;1.37;1.27;;;16.10;97.30;;;;;;4986050;28;20229;-84
2022/07/05 05:09:49;;;;;;;1.20;1.10;;;16.10;97.30;;;;;;5003074;28;20272;-85
2022/07/05 05:12:14;;;;;;;1.10;1.00;;;16.20;97.30;;;;;;4992139;28;20173;-83
2022/07/05 05:14:40;;;;;;;1.63;1.30;;;16.20;97.30;;;;;;4996761;28;20824;-84
2022/07/05 05:17:05;;;;;;;1.00;0.90;;;16.20;97.30;;;;;;4997752;28;20205;-83
2022/07/05 05:19:31;;;;;;;0.90;0.90;;;16.20;97.30;;;;;;4999022;28;20738;-83
2022/07/05 05:21:57;;;;;;;1.00;0.90;;;16.30;97.30;;;;;;4998451;28;20184;-83
2022/07/05 05:24:22;;;;;;;1.23;1.17;;;16.30;97.30;;;;;;4997985;28;20213;-83
2022/07/05 05:26:49;;;;;;;1.40;1.30;;;16.30;97.30;;;;;;4998064;28;20184;-82
2022/07/05 05:29:14;;;;;;;1.27;1.07;;;16.40;97.30;;;;;;5001093;28;20551;-84
2022/07/05 05:31:40;;;;;;;2.20;1.50;;;16.40;97.30;;;;;;5001648;28;20416;-82
2022/07/05 05:34:05;;;;;;;1.00;0.90;;;16.40;97.30;;;;;;5001576;28;20205;-83
2022/07/05 05:36:31;;;;;;;1.10;1.10;;;16.50;97.30;;;;;;5001406;28;20169;-83
2022/07/05 05:38:57;;;;;;;1.60;1.50;;;16.60;97.30;;;;;;5001139;28;20203;-84
2022/07/05 05:41:23;;;;;;;1.20;1.10;;;16.60;97.20;;;;;;5001586;28;20431;-83
2022/07/05 05:43:49;;;;;;;1.00;0.90;;;16.60;97.10;;;;;;5001529;28;20204;-82
2022/07/05 05:46:15;;;;;;;1.10;1.00;;;16.70;97.10;;;;;;5002296;28;20169;-83
2022/07/05 05:48:41;;;;;;;1.00;0.90;;;16.70;97.20;;;;;;5003570;28;20920;-83
2022/07/05 05:51:07;;;;;;;1.00;0.90;;;16.70;97.10;;;;;;5002975;28;20174;-83
2022/07/05 05:53:32;;;;;;;1.00;0.93;;;16.80;97.00;;;;;;5002545;28;20804;-83
2022/07/05 05:55:58;;;;;;;1.37;1.27;;;16.80;96.70;;;;;;5002730;28;20177;-83
2022/07/05 05:58:24;;;;;;;3.20;1.37;;;16.80;96.60;;;;;;5002087;28;20193;-82
2022/07/05 06:00:53;;;;;;;1.03;0.97;;;16.90;96.80;;;;;;5012194;28;20225;-82
2022/07/05 06:03:21;;;;;;;1.10;1.00;;;17.00;96.60;;;;;;5001172;28;20454;-83
2022/07/05 06:05:46;;;;;;;1.17;1.07;;;17.00;96.50;;;;;;5018282;28;20420;-83
2022/07/05 06:08:12;;;;;;;1.03;0.93;;;17.10;96.70;;;;;;5001016;28;20436;-83
2022/07/05 06:10:39;;;;;;;1.10;1.00;;;17.10;96.60;;;;;;5017674;28;20204;-84
2022/07/05 06:13:13;;;;;;;1.20;1.10;;;17.20;96.60;;;;;;5000210;28;20452;-83
2022/07/05 06:15:39;;;;;;;1.20;1.17;;;17.30;96.50;;;;;;5000963;28;20419;-83
2022/07/05 06:18:07;;;;;;;1.00;0.90;;;17.40;96.50;;;;;;5001243;28;20440;-83
2022/07/05 06:20:35;;;;;;;0.90;0.90;;;17.40;96.40;;;;;;4996284;28;20420;-83
2022/07/05 06:23:01;;;;;;;1.30;1.20;;;17.50;96.30;;;;;;4998048;28;20786;-83
2022/07/05 06:25:28;;;;;;;4.10;1.00;;;17.50;96.20;;;;;;4997050;28;20712;-83
2022/07/05 06:27:56;;;;;;;1.00;0.90;;;17.60;96.10;;;;;;5000857;28;20444;-83
2022/07/05 06:30:23;;;;;;;0.90;0.80;;;17.70;96.00;;;;;;4991990;28;20416;-83
2022/07/05 06:32:50;;;;;;;1.10;1.03;;;17.70;95.90;;;;;;4991937;28;20965;-83
2022/07/05 06:35:16;;;;;;;1.20;1.07;;;17.80;95.60;;;;;;4990814;28;20428;-83
2022/07/05 06:37:47;;;;;;;1.10;1.00;;;17.90;95.40;;;;;;5000085;28;20455;-82
2022/07/05 06:40:16;;;;;;;1.20;1.10;;;18.00;95.40;;;;;;4997365;28;20832;-82
2022/07/05 06:42:42;;;;;;;1.03;0.93;;;18.10;95.20;;;;;;5010315;28;20562;-82
2022/07/05 06:45:08;;;;;;;0.90;0.90;;;18.10;95.10;;;;;;4996540;28;20526;-82
2022/07/05 06:47:34;;;;;;;2.30;1.00;;;18.20;95.10;;;;;;5016222;28;20259;-84
2022/07/05 06:50:02;;;;;;;1.17;1.07;;;18.30;94.90;;;;;;4997720;28;20424;-82
2022/07/05 06:52:28;;;;;;;0.93;0.90;;;18.40;94.60;;;;;;5006423;28;20462;-83
2022/07/05 06:54:54;;;;;;;0.97;0.87;;;18.40;94.40;;;;;;5008450;28;20455;-83
2022/07/05 06:57:23;;;;;;;1.20;1.10;;;18.50;94.30;;;;;;4999911;28;20440;-84
2022/07/05 06:59:50;;;;;;;1.20;1.10;;;18.60;94.30;;;;;;5010593;28;20199;-83
2022/07/05 07:02:16;;;;;;;3.20;1.70;;;18.70;94.00;;;;;;4999556;28;21070;-83
2022/07/05 07:04:41;;;;;;;1.10;1.00;;;18.70;93.60;;;;;;4991960;28;20460;-83
2022/07/05 07:09:52;;;;;;;1.00;0.90;;;18.90;93.40;;;;;;5019032;28;20407;-83
2022/07/05 07:12:17;;;;;;;0.80;0.80;;;18.90;93.20;;;;;;4992235;28;20424;-83
2022/07/05 07:14:43;;;;;;;1.20;1.10;;;19.00;93.40;;;;;;4998553;28;20551;-83
2022/07/05 07:17:12;;;;;;;0.97;0.87;;;19.00;93.20;;;;;;4997832;28;20227;-84
2022/07/05 07:19:38;;;;;;;1.10;1.00;;;19.10;93.10;;;;;;4997533;28;20181;-82
2022/07/05 07:22:04;;;;;;;1.00;1.00;;;19.20;92.90;;;;;;5001323;28;20429;-82
2022/07/05 07:24:32;;;;;;;1.37;1.10;;;19.30;92.30;;;;;;5005995;28;20201;-82
2022/07/05 07:27:04;;;;;;;2.80;1.57;;;19.40;92.30;;;;;;5011920;28;20869;-83
2022/07/05 07:29:31;;;;;;;0.93;0.87;;;19.50;92.00;;;;;;5016363;28;20423;-84
2022/07/05 07:31:58;;;;;;;1.87;1.07;;;19.50;91.90;;;;;;5002312;28;20424;-84
2022/07/05 07:34:24;;;;;;;0.90;0.80;;;19.60;91.90;;;;;;5016797;28;20451;-82
2022/07/05 07:36:50;;;;;;;1.00;0.90;;;19.70;91.80;;;;;;4999301;28;20957;-82
2022/07/05 07:39:16;;;;;;;0.97;0.87;;;19.80;91.50;;;;;;5006720;28;20431;-82
2022/07/05 07:41:41;;;;;;;0.90;0.90;;;19.90;91.70;;;;;;4996620;28;20421;-82
2022/07/05 07:44:07;;;;;;;1.43;1.33;;;20.00;91.40;;;;;;4999479;28;20201;-82
2022/07/05 07:46:33;;;;;;;1.07;0.97;;;20.10;91.10;;;;;;4999011;28;20218;-82
2022/07/05 07:48:59;;;;;;;1.00;0.90;;;20.20;90.30;;;;;;5017570;28;21112;-82
2022/07/05 07:51:24;;;;;;;0.70;0.70;;;20.30;90.30;;;;;;5002042;28;20200;-82
2022/07/05 07:53:50;;;;;;;0.90;0.80;;;20.30;90.00;;;;;;5004175;28;20181;-82
2022/07/05 07:56:17;;;;;;;4.50;1.40;;;20.40;89.90;;;;;;4996930;28;20177;-81
2022/07/05 07:58:43;;;;;;;0.90;0.80;;;20.50;89.70;;;;;;5000650;28;20201;-82
2022/07/05 08:01:10;;;;;;;0.90;0.90;;;20.50;89.20;;;;;;5000001;28;20985;-82
2022/07/05 08:03:40;;;;;;;1.57;1.47;;;20.60;89.30;;;;;;5000608;28;20300;-83
2022/07/05 08:06:07;;;;;;;1.10;1.00;;;20.70;89.00;;;;;;4986892;28;20452;-84
2022/07/05 08:08:34;;;;;;;0.90;0.90;;;20.70;88.70;;;;;;5004130;28;20522;-82
2022/07/05 08:11:00;;;;;;;1.30;1.20;;;20.80;88.40;;;;;;5017429;28;20424;-82
2022/07/05 08:13:26;;;;;;;1.00;0.90;;;20.80;88.10;;;;;;5007436;28;20861;-84
2022/07/05 08:15:52;;;;;;;1.03;0.97;;;20.90;88.00;;;;;;4983709;28;20472;-81
2022/07/05 08:23:48;;;;;;;1.23;1.00;;;21.20;87.50;;;;;;5015423;28;21217;-81
2022/07/05 08:26:13;;;;;;;0.70;0.70;;;21.30;86.80;;;;;;4981088;28;20516;-81
2022/07/05 08:28:39;;;;;;;0.90;0.80;;;21.40;85.90;;;;;;4982548;28;20213;-81
2022/07/05 08:31:05;;;;;;;1.13;1.03;;;21.50;84.80;;;;;;4998139;28;20180;-83
2022/07/05 08:33:30;;;;;;;1.10;1.00;;;21.60;84.20;;;;;;4998587;28;20188;-81
2022/07/05 08:35:56;;;;;;;0.90;0.80;;;21.70;83.90;;;;;;4993860;28;20214;-83
2022/07/05 08:38:21;;;;;;;0.90;0.80;;;21.70;83.30;;;;;;4976895;28;20197;-83
2022/07/05 08:40:51;;;;;;;1.00;0.90;;;21.80;83.30;;;;;;5002440;28;20235;-82
2022/07/05 08:43:19;;;;;;;0.90;0.80;;;21.90;83.30;;;;;;4996317;28;20240;-83
2022/07/05 08:45:46;;;;;;;0.90;0.80;;;22.00;82.50;;;;;;4995976;28;20426;-82
2022/07/05 08:48:16;;;;;;;0.90;0.80;;;22.10;82.80;;;;;;4996607;28;20436;-82
2022/07/05 08:50:43;;;;;;;0.90;0.80;;;22.10;82.20;;;;;;5006662;28;20417;-82
2022/07/05 08:53:09;;;;;;;0.90;0.90;;;22.20;82.40;;;;;;5000346;28;20412;-83
2022/07/05 08:55:35;;;;;;;1.00;0.80;;;22.20;80.90;;;;;;4998076;28;20921;-83
2022/07/05 08:58:01;;;;;;;1.10;1.00;;;22.30;81.70;;;;;;5003298;28;20444;-82
2022/07/05 09:00:27;;;;;;;0.93;0.83;;;22.30;80.80;;;;;;4995385;28;20409;-83
2022/07/05 09:02:54;;;;;;;0.90;0.80;;;22.40;81.20;;;;;;4998082;28;20427;-83
2022/07/05 09:05:20;;;;;;;0.90;0.80;;;22.50;80.90;;;;;;5017166;28;20468;-82
2022/07/05 09:08:00;;;;;;;0.70;0.70;;;22.60;80.60;;;;;;4993519;28;20443;-84
2022/07/05 09:10:27;;;;;;;0.90;0.90;;;22.60;80.80;;;;;;4990516;28;20471;-83
2022/07/05 09:12:54;;;;;;;1.00;0.90;;;22.70;80.20;;;;;;4991863;28;20759;-84
2022/07/05 09:15:20;;;;;;;0.93;0.87;;;22.80;80.70;;;;;;4992142;28;20427;-83
2022/07/05 09:17:47;;;;;;;1.00;0.80;;;22.90;81.00;;;;;;4993811;28;21031;-83
2022/07/05 09:20:15;;;;;;;1.03;0.80;;;22.90;80.20;;;;;;4993283;28;20181;-82
2022/07/05 09:22:53;;;;;;;0.70;0.70;;;23.00;80.00;;;;;;5009534;28;20910;-82
2022/07/05 09:25:29;;;;;;;1.00;0.90;;;23.10;80.40;;;;;;4993316;28;20467;-81
2022/07/05 09:28:00;;;;;;;0.90;0.80;;;23.20;80.30;;;;;;4993676;28;20453;-81
2022/07/05 09:30:38;;;;;;;1.20;1.10;;;23.30;80.00;;;;;;4993472;28;20428;-83
2022/07/05 09:33:09;;;;;;;0.90;0.90;;;23.40;80.00;;;;;;5011425;28;20537;-83
2022/07/05 09:35:37;;;;;;;0.90;0.80;;;23.40;80.10;;;;;;5003623;28;20417;-83
2022/07/05 09:38:04;;;;;;;1.00;0.90;;;23.40;80.10;;;;;;4984596;28;20445;-84
2022/07/05 09:40:34;;;;;;;1.10;1.00;;;23.30;79.60;;;;;;4996728;28;20424;-83
2022/07/05 09:43:11;;;;;;;1.00;0.90;;;23.30;79.10;;;;;;4995029;28;20412;-84
2022/07/05 09:45:37;;;;;;;1.50;0.90;;;23.20;79.40;;;;;;5007929;28;20471;-83
2022/07/05 09:48:06;;;;;;;0.80;0.80;;;23.30;79.30;;;;;;4995429;28;20542;-82
2022/07/05 09:50:36;;;;;;;1.10;1.00;;;23.30;79.00;;;;;;4993104;28;20184;-82
2022/07/05 09:53:02;;;;;;;0.70;0.70;;;23.30;79.70;;;;;;4994322;28;20430;-81
2022/07/05 09:55:28;;;;;;;0.77;0.77;;;23.20;79.90;;;;;;4991895;28;20416;-83
2022/07/05 09:57:54;;;;;;;1.00;0.90;;;23.20;79.60;;;;;;4994694;28;20201;-83
2022/07/05 10:00:23;;;;;;;0.90;0.80;;;23.20;80.80;;;;;;4992603;28;20428;-82
2022/07/05 10:02:58;;;;;;;1.20;1.00;;;23.30;80.50;;;;;;4992935;28;20193;-84
2022/07/05 10:05:25;;;;;;;1.00;0.90;;;23.60;78.50;;;;;;4986487;28;20436;-83
2022/07/05 10:08:02;;;;;;;0.77;0.73;;;23.70;76.00;;;;;;5002482;28;20957;-84
2022/07/05 10:10:31;;;;;;;1.10;0.90;;;23.80;75.60;;;;;;4995317;28;20447;-84
2022/07/05 10:13:02;;;;;;;1.00;0.90;;;23.90;75.80;;;;;;4995224;28;20539;-81
2022/07/05 10:18:31;;;;;;;0.97;0.87;;;23.80;75.60;;;;;;5004278;28;20856;-83
2022/07/05 10:21:05;;;;;;;0.97;0.90;;;23.70;76.40;;;;;;4997106;28;20427;-83
2022/07/05 10:23:34;;;;;;;0.80;0.80;;;23.80;76.20;;;;;;4997521;28;20462;-84
2022/07/05 10:26:06;;;;;;;1.00;0.90;;;23.90;76.60;;;;;;4997926;28;20454;-84
2022/07/05 10:28:32;;;;;;;1.50;1.40;;;23.90;75.60;;;;;;4996118;28;20436;-84
2022/07/05 10:30:58;;;;;;;0.83;0.77;;;24.00;75.90;;;;;;5012874;28;20657;-84
2022/07/05 10:33:27;;;;;;;1.00;0.90;;;24.00;75.70;;;;;;4998749;28;20424;-83
2022/07/05 10:35:53;;;;;;;1.10;1.03;;;24.00;76.60;;;;;;4997708;28;20415;-83
2022/07/05 10:38:21;;;;;;;0.97;0.87;;;24.10;76.10;;;;;;4998570;28;20444;-82
2022/07/05 10:40:51;;;;;;;0.90;0.90;;;24.20;76.20;;;;;;4996582;28;20421;-83
2022/07/05 10:43:17;;;;;;;1.17;1.07;;;24.40;75.00;;;;;;4998506;28;20455;-84
2022/07/05 10:45:49;;;;;;;0.90;0.90;;;24.60;73.80;;;;;;4997704;28;20507;-83
2022/07/05 10:48:25;;;;;;;0.80;0.80;;;24.80;73.30;;;;;;4997625;28;20471;-84
2022/07/05 10:50:54;;;;;;;0.87;0.80;;;24.80;73.70;;;;;;4998775;28;20964;-84
2022/07/05 10:53:35;;;;;;;0.87;0.80;;;25.00;73.50;;;;;;4997282;28;20511;-83
2022/07/05 10:56:04;;;;;;;1.00;0.90;;;25.10;72.90;;;;;;4996941;28;20436;-82
2022/07/05 10:58:43;;;;;;;1.33;0.90;;;25.20;73.80;;;;;;4997949;28;20452;-84
2022/07/05 11:01:21;;;;;;;0.90;0.80;;;25.10;73.70;;;;;;4992833;28;20512;-85
2022/07/05 11:04:03;;;;;;;1.00;0.90;;;25.00;74.30;;;;;;4993192;28;20592;-84
2022/07/05 11:06:30;;;;;;;1.00;0.90;;;24.80;74.90;;;;;;4989718;28;20425;-83
2022/07/05 11:08:59;;;;;;;0.90;0.80;;;24.80;74.90;;;;;;4992491;28;20448;-83
2022/07/05 11:11:32;;;;;;;1.00;0.90;;;24.80;75.40;;;;;;4986445;28;20417;-83
2022/07/05 11:14:03;;;;;;;0.80;0.80;;;24.90;75.10;;;;;;4990810;28;20428;-82
2022/07/05 11:16:34;;;;;;;0.90;0.80;;;25.00;75.10;;;;;;4990121;28;20564;-82
2022/07/05 11:19:06;;;;;;;0.90;0.80;;;25.20;74.40;;;;;;4992322;28;20812;-83
2022/07/05 11:21:33;;;;;;;0.90;0.80;;;25.40;72.90;;;;;;4993195;28;20460;-83
2022/07/05 11:24:23;;;;;;;1.03;0.97;;;25.50;73.90;;;;;;4992671;28;20464;-83
2022/07/05 11:26:53;;;;;;;0.80;0.73;;;25.70;73.30;;;;;;4983175;28;20421;-83
2022/07/05 11:29:43;;;;;;;0.80;0.80;;;25.80;72.80;;;;;;4993279;28;20425;-83
2022/07/05 11:32:21;;;;;;;0.90;0.83;;;26.00;71.60;;;;;;4994458;28;20837;-84
2022/07/05 11:35:20;;;;;;;0.80;0.70;;;26.00;72.40;;;;;;4994317;28;20420;-82
2022/07/05 11:38:06;;;;;;;0.90;0.80;;;25.90;72.50;;;;;;4979071;28;20974;-84
2022/07/05 11:40:34;;;;;;;1.20;1.00;;;25.60;71.80;;;;;;4990576;28;20421;-83
2022/07/05 11:43:02;;;;;;;0.80;0.80;;;25.50;72.20;;;;;;4993808;28;20417;-84
2022/07/05 11:45:29;;;;;;;0.90;0.80;;;25.30;72.80;;;;;;4993680;28;21005;-82
2022/07/05 11:47:56;;;;;;;1.23;0.90;;;25.30;74.70;;;;;;4995612;28;20468;-83
2022/07/05 11:50:28;;;;;;;2.50;1.43;;;25.40;74.60;;;;;;4974815;28;20422;-81
2022/07/05 11:52:53;;;;;;;0.90;0.80;;;25.60;74.20;;;;;;4974982;28;20428;-83
2022/07/05 11:55:19;;;;;;;1.00;0.90;;;25.80;73.50;;;;;;4993253;28;20870;-84
2022/07/05 11:57:50;;;;;;;0.93;0.83;;;26.10;72.70;;;;;;4993055;28;20292;-85
2022/07/05 12:00:32;;;;;;;0.90;0.80;;;26.40;72.20;;;;;;4993409;28;20258;-85
2022/07/05 12:02:59;;;;;;;0.80;0.70;;;26.60;73.80;;;;;;4974450;28;20437;-83
2022/07/05 12:05:30;;;;;;;0.70;0.70;;;26.80;72.40;;;;;;4974535;28;20515;-84
2022/07/05 12:07:56;;;;;;;0.70;0.70;;;27.00;69.90;;;;;;4968727;28;20794;-84
2022/07/05 12:13:07;;;;;;;0.70;0.70;;;26.70;69.90;;;;;;4994574;28;20551;-84
2022/07/05 12:15:32;;;;;;;1.10;1.00;;;26.40;69.90;;;;;;4977480;28;20546;-84
2022/07/05 12:18:03;;;;;;;0.87;0.83;;;26.10;70.40;;;;;;4974052;28;20513;-84
2022/07/05 12:20:30;;;;;;;1.10;0.93;;;26.00;71.00;;;;;;4976365;28;20193;-85
2022/07/05 12:22:55;;;;;;;0.90;0.80;;;26.00;72.10;;;;;;4975608;28;20437;-85
2022/07/05 12:25:23;;;;;;;0.90;0.80;;;26.10;72.40;;;;;;4992066;28;20461;-84
2022/07/05 12:27:50;;;;;;;0.97;0.87;;;26.00;71.40;;;;;;4974476;28;20200;-85
2022/07/05 12:30:17;;;;;;;1.37;1.10;;;26.00;70.70;;;;;;4975598;28;20426;-85
2022/07/05 12:33:01;;;;;;;1.47;1.00;;;26.00;71.80;;;;;;4973804;28;20523;-84
2022/07/05 12:35:40;;;;;;;0.90;0.80;;;26.20;70.60;;;;;;4979523;28;20409;-84
2022/07/05 12:38:20;;;;;;;0.93;0.83;;;26.30;72.30;;;;;;4975102;28;20444;-83
2022/07/05 12:40:57;;;;;;;1.43;1.40;;;26.50;72.60;;;;;;4994472;28;20855;-83
2022/07/05 12:43:23;;;;;;;0.90;0.80;;;26.60;71.20;;;;;;4977197;28;20558;-83
2022/07/05 12:46:07;;;;;;;1.00;0.90;;;26.70;71.50;;;;;;4974397;28;20417;-85
2022/07/05 12:48:38;;;;;;;0.80;0.70;;;26.80;72.90;;;;;;4992061;28;20197;-83
2022/07/05 12:51:05;;;;;;;0.73;0.70;;;26.70;70.30;;;;;;4970878;28;20432;-85
2022/07/05 12:59:04;;;;;;;0.87;0.77;;;26.30;70.30;;;;;;4993344;28;20475;-84
2022/07/05 13:01:34;;;;;;;1.20;1.10;;;26.00;69.90;;;;;;4996348;28;21450;-83
2022/07/05 13:04:14;;;;;;;1.10;0.80;;;25.80;70.80;;;;;;4983365;28;20471;-83
2022/07/05 13:06:58;;;;;;;0.80;0.80;;;25.70;71.50;;;;;;4997773;28;20447;-83
2022/07/05 13:09:36;;;;;;;1.47;1.00;;;25.90;72.30;;;;;;4980549;28;20434;-85
2022/07/05 13:12:20;;;;;;;0.90;0.80;;;26.10;71.80;;;;;;4996198;28;20408;-83
2022/07/05 13:14:50;;;;;;;0.80;0.70;;;26.40;71.20;;;;;;4996412;28;20451;-86